createdAt,value
2023-03-17T00:00:42.213Z,3.229
2023-03-17T00:02:43.872Z,5.194
2023-03-17T00:04:45.098Z,2.106
2023-03-17T00:06:46.422Z,3.51
2023-03-17T00:08:47.593Z,6.318
2023-03-17T00:10:49.469Z,3.65
2023-03-17T00:12:50.554Z,3.088
2023-03-17T00:14:52.149Z,3.51
2023-03-17T00:16:53.949Z,3.51
2023-03-17T00:18:55.802Z,2.948
2023-03-17T00:20:57.660Z,3.51
2023-03-17T00:22:59.283Z,4.352
2023-03-17T00:25:01.210Z,6.177
2023-03-17T00:27:02.506Z,8.424
2023-03-17T00:29:03.534Z,5.475
2023-03-17T00:31:05.693Z,6.879
2023-03-17T00:33:06.629Z,5.054
2023-03-17T00:35:08.497Z,5.756
2023-03-17T00:37:09.772Z,5.054
2023-03-17T00:39:11.017Z,4.352
2023-03-17T00:41:12.235Z,3.931
2023-03-17T00:45:14.930Z,3.088
2023-03-17T00:51:19.447Z,2.106
2023-03-17T00:53:20.429Z,5.616
2023-03-17T00:55:22.342Z,7.862
2023-03-17T00:57:23.980Z,3.65
2023-03-17T00:59:25.490Z,4.071
2023-03-17T01:01:27.052Z,8.283
2023-03-17T01:03:28.091Z,4.352
2023-03-17T01:05:29.638Z,4.492
2023-03-17T01:07:31.176Z,1.965
2023-03-17T01:09:32.706Z,3.79
2023-03-17T01:11:34.071Z,3.369
2023-03-17T01:13:35.294Z,1.263
2023-03-17T01:15:36.764Z,3.088
2023-03-17T01:17:38.120Z,3.51
2023-03-17T01:19:39.658Z,5.896
2023-03-17T01:21:40.878Z,5.054
2023-03-17T01:23:41.931Z,1.263
2023-03-17T01:25:43.465Z,4.212
2023-03-17T01:26:27.332Z,2.106
2023-03-17T01:28:28.478Z,1.825
2023-03-17T01:30:30.155Z,2.527
2023-03-17T01:32:31.759Z,4.633
2023-03-17T01:34:33.225Z,3.79
2023-03-17T01:36:34.785Z,0
2023-03-17T01:38:36.132Z,1.263
2023-03-17T01:40:38.085Z,2.808
2023-03-17T01:42:39.138Z,2.948
2023-03-17T01:44:40.691Z,2.948
2023-03-17T01:46:42.378Z,0.14
2023-03-17T01:48:43.482Z,4.633
2023-03-17T01:50:45.185Z,4.633
2023-03-17T01:52:46.976Z,4.773
2023-03-17T01:54:48.185Z,4.914
2023-03-17T01:56:50.155Z,4.914
2023-03-17T01:58:51.999Z,2.527
2023-03-17T02:00:53.717Z,3.65
2023-03-17T02:02:55.601Z,5.896
2023-03-17T02:04:56.969Z,3.51
2023-03-17T02:06:58.983Z,4.633
2023-03-17T02:08:59.553Z,3.65
2023-03-17T02:11:00.702Z,3.088
2023-03-17T02:15:03.562Z,3.369
2023-03-17T02:17:04.856Z,3.369
2023-03-17T02:19:05.971Z,4.212
2023-03-17T02:21:07.471Z,4.492
2023-03-17T02:23:08.779Z,3.65
2023-03-17T02:25:09.816Z,3.088
2023-03-17T02:27:11.247Z,3.51
2023-03-17T02:29:12.518Z,2.246
2023-03-17T02:31:14.262Z,0.421
2023-03-17T02:33:15.690Z,2.667
2023-03-17T02:37:18.941Z,0
2023-03-17T02:39:20.048Z,0
2023-03-17T02:41:21.748Z,0
2023-03-17T02:43:22.779Z,1.825
2023-03-17T02:47:25.637Z,2.386
2023-03-17T02:49:27.093Z,1.123
2023-03-17T02:51:28.985Z,0.28
2023-03-17T02:53:30.871Z,1.263
2023-03-17T02:57:33.795Z,2.948
2023-03-17T02:59:35.307Z,2.948
2023-03-17T03:01:36.414Z,2.106
2023-03-17T03:03:37.698Z,0.982
2023-03-17T03:07:41.126Z,2.106
2023-03-17T03:09:42.994Z,0.14
2023-03-17T03:11:44.002Z,0
2023-03-17T03:13:45.065Z,0
2023-03-17T03:15:46.388Z,0
2023-03-17T03:17:47.926Z,2.948
2023-03-17T03:19:49.224Z,3.65
2023-03-17T03:21:50.397Z,2.527
2023-03-17T03:23:51.656Z,3.79
2023-03-17T03:25:52.914Z,4.352
2023-03-17T03:27:54.496Z,3.088
2023-03-17T03:29:55.535Z,4.633
2023-03-17T03:31:56.656Z,3.369
2023-03-17T03:33:58.294Z,1.684
2023-03-17T03:35:59.863Z,0.561
2023-03-17T03:38:01.673Z,0
2023-03-17T03:40:03.485Z,0
2023-03-17T03:42:05.400Z,0
2023-03-17T03:44:06.850Z,0
2023-03-17T03:46:08.566Z,0
2023-03-17T03:48:10.329Z,1.263
2023-03-17T03:50:11.671Z,0
2023-03-17T03:52:12.999Z,0
2023-03-17T03:54:14.889Z,0
2023-03-17T03:56:16.119Z,0
2023-03-17T03:58:17.136Z,0
2023-03-17T04:00:18.264Z,0
2023-03-17T04:02:19.535Z,1.965
2023-03-17T04:04:21.171Z,1.825
2023-03-17T04:06:22.998Z,2.667
2023-03-17T04:08:24.548Z,0.28
2023-03-17T04:10:26.511Z,0.14
2023-03-17T04:12:28.333Z,0.982
2023-03-17T04:14:29.905Z,0.561
2023-03-17T04:16:31.735Z,0.702
2023-03-17T04:18:32.754Z,0
2023-03-17T04:20:33.824Z,1.965
2023-03-17T04:22:35.060Z,1.684
2023-03-17T04:24:36.489Z,0.14
2023-03-17T04:26:37.705Z,2.106
2023-03-17T04:28:39.171Z,0.842
2023-03-17T04:30:40.182Z,0
2023-03-17T04:32:41.514Z,0
2023-03-17T04:34:42.988Z,1.684
2023-03-17T04:38:46.034Z,0
2023-03-17T04:40:47.528Z,0
2023-03-17T04:42:49.019Z,0
2023-03-17T04:44:50.508Z,0.14
2023-03-17T04:48:53.583Z,0
2023-03-17T04:50:54.750Z,0
2023-03-17T04:52:56.297Z,0
2023-03-17T04:54:57.726Z,0
2023-03-17T04:56:58.733Z,0
2023-03-17T04:59:00.459Z,0
2023-03-17T05:01:01.882Z,0.14
2023-03-17T05:03:03.509Z,0
2023-03-17T05:05:03.962Z,0
2023-03-17T05:07:05.960Z,0
2023-03-17T05:09:07.069Z,0
2023-03-17T05:11:08.424Z,0
2023-03-17T05:13:09.890Z,3.229
2023-03-17T05:15:11.595Z,1.684
2023-03-17T05:17:13.215Z,0.14
2023-03-17T05:21:16.390Z,0
2023-03-17T05:23:18.075Z,0
2023-03-17T05:25:19.788Z,0
2023-03-17T05:27:20.922Z,2.106
2023-03-17T05:31:23.541Z,1.123
2023-03-17T05:33:24.703Z,0.14
2023-03-17T05:35:26.462Z,1.404
2023-03-17T05:37:27.789Z,0.14
2023-03-17T05:39:29.284Z,1.263
2023-03-17T05:41:30.457Z,2.246
2023-03-17T05:43:31.830Z,0
2023-03-17T05:45:33.413Z,0
2023-03-17T05:47:35.024Z,0.421
2023-03-17T05:49:36.499Z,0
2023-03-17T05:51:37.679Z,1.263
2023-03-17T05:53:39.152Z,0.421
2023-03-17T05:55:40.856Z,0
2023-03-17T05:57:42.492Z,0
2023-03-17T05:59:44.049Z,0
2023-03-17T06:01:45.391Z,0
2023-03-17T06:03:46.548Z,0
2023-03-17T06:05:47.644Z,0
2023-03-17T06:07:54.751Z,0
2023-03-17T06:09:50.589Z,0
2023-03-17T06:11:51.835Z,0
2023-03-17T06:13:53.082Z,0
2023-03-17T06:15:54.716Z,0
2023-03-17T06:17:56.263Z,0
2023-03-17T06:19:57.442Z,0
2023-03-17T06:21:58.613Z,0
2023-03-17T06:24:00.042Z,0
2023-03-17T06:26:01.777Z,0
2023-03-17T06:28:04.057Z,0
2023-03-17T06:30:05.588Z,0
2023-03-17T06:32:19.649Z,0
2023-03-17T06:34:08.119Z,0
2023-03-17T06:36:09.549Z,0.14
2023-03-17T06:38:10.798Z,0.28
2023-03-17T06:40:12.417Z,0
2023-03-17T06:42:13.871Z,0
2023-03-17T06:44:15.684Z,0
2023-03-17T06:46:17.574Z,0
2023-03-17T06:48:18.765Z,0
2023-03-17T06:50:19.983Z,0
2023-03-17T06:52:20.968Z,0.421
2023-03-17T06:54:22.841Z,0
2023-03-17T06:56:30.003Z,1.404
2023-03-17T06:58:26.440Z,0
2023-03-17T07:02:29.474Z,0
2023-03-17T07:04:31.311Z,0
2023-03-17T07:06:32.860Z,0
2023-03-17T07:08:34.247Z,0
2023-03-17T07:12:37.120Z,0
2023-03-17T07:14:38.935Z,0
2023-03-17T07:16:40.402Z,0.421
2023-03-17T07:18:42.154Z,0.14
2023-03-17T07:20:43.578Z,0
2023-03-17T07:22:45.478Z,0
2023-03-17T07:24:46.538Z,0
2023-03-17T07:28:49.980Z,0
2023-03-17T07:30:51.210Z,1.684
2023-03-17T07:32:52.656Z,0.421
2023-03-17T07:34:53.848Z,0.28
2023-03-17T07:36:55.703Z,0.842
2023-03-17T07:38:56.816Z,0.421
2023-03-17T07:40:58.147Z,1.123
2023-03-17T07:45:01.573Z,0
2023-03-17T07:47:03.374Z,0.28
2023-03-17T07:49:04.701Z,0.982
2023-03-17T07:51:06.565Z,0.702
2023-03-17T07:55:09.352Z,0
2023-03-17T07:57:10.641Z,0
2023-03-17T07:59:11.969Z,0
2023-03-17T08:01:13.573Z,0
2023-03-17T08:03:14.542Z,0
2023-03-17T08:05:15.924Z,0
2023-03-17T08:07:17.692Z,0.14
2023-03-17T08:09:18.591Z,0
2023-03-17T08:11:20.393Z,0.28
2023-03-17T08:12:04.055Z,0.982
2023-03-17T08:14:05.792Z,0.982
2023-03-17T08:16:07.445Z,0.28
2023-03-17T08:18:08.340Z,0.14
2023-03-17T08:22:10.588Z,2.808
2023-03-17T08:24:11.781Z,0
2023-03-17T08:26:13.303Z,1.965
2023-03-17T08:28:14.231Z,0
2023-03-17T08:32:15.920Z,1.404
2023-03-17T08:34:16.966Z,0
2023-03-17T08:36:18.291Z,0.842
2023-03-17T08:38:19.204Z,0
2023-03-17T08:40:20.679Z,0.702
2023-03-17T08:42:21.833Z,1.684
2023-03-17T08:44:23.277Z,0.982
2023-03-17T08:46:24.835Z,0.14
2023-03-17T08:48:25.811Z,0.14
2023-03-17T08:50:27.275Z,0
2023-03-17T08:52:28.658Z,0
2023-03-17T08:54:29.603Z,1.825
2023-03-17T08:56:32.155Z,0.421
2023-03-17T08:58:33.902Z,0.842
2023-03-17T09:00:35.416Z,2.808
2023-03-17T09:02:37.000Z,0
2023-03-17T09:04:40.036Z,0.14
2023-03-17T09:06:44.144Z,0
2023-03-17T09:08:40.874Z,0.982
2023-03-17T09:10:44.374Z,0.561
2023-03-17T09:12:44.569Z,0
2023-03-17T09:14:48.054Z,1.544
2023-03-17T09:16:48.188Z,1.825
2023-03-17T09:18:49.977Z,0.28
2023-03-17T09:20:50.995Z,3.369
2023-03-17T09:22:52.344Z,2.106
2023-03-17T09:24:53.989Z,2.106
2023-03-17T09:26:55.655Z,0.561
2023-03-17T09:28:56.523Z,0.982
2023-03-17T09:30:57.740Z,0
2023-03-17T09:33:00.193Z,1.684
2023-03-17T09:35:01.498Z,3.79
2023-03-17T09:37:02.665Z,0.702
2023-03-17T09:39:04.249Z,1.684
2023-03-17T09:41:05.088Z,1.123
2023-03-17T09:43:05.943Z,4.212
2023-03-17T09:45:07.088Z,1.544
2023-03-17T09:47:08.896Z,1.544
2023-03-17T09:49:10.163Z,1.825
2023-03-17T09:51:11.711Z,1.684
2023-03-17T09:53:13.066Z,1.965
2023-03-17T09:55:14.263Z,2.667
2023-03-17T09:57:15.726Z,4.212
2023-03-17T09:59:17.261Z,2.386
2023-03-17T10:03:19.445Z,2.527
2023-03-17T10:05:20.829Z,1.263
2023-03-17T10:07:23.214Z,3.65
2023-03-17T10:09:26.666Z,2.106
2023-03-17T10:13:27.346Z,4.071
2023-03-17T10:15:30.043Z,2.386
2023-03-17T10:17:30.950Z,0.982
2023-03-17T10:19:32.002Z,1.544
2023-03-17T10:21:33.257Z,1.965
2023-03-17T10:23:34.586Z,2.246
2023-03-17T10:25:35.482Z,3.088
2023-03-17T10:27:36.716Z,1.965
2023-03-17T10:29:38.490Z,0
2023-03-17T10:31:40.030Z,1.263
2023-03-17T10:33:41.390Z,2.106
2023-03-17T10:35:43.095Z,3.369
2023-03-17T10:37:44.165Z,4.212
2023-03-17T10:39:45.223Z,3.51
2023-03-17T10:41:46.852Z,4.352
2023-03-17T10:45:48.674Z,0.28
2023-03-17T10:47:49.966Z,1.825
2023-03-17T10:49:51.416Z,0
2023-03-17T10:51:52.264Z,2.667
2023-03-17T10:55:54.817Z,2.808
2023-03-17T10:57:56.039Z,1.684
2023-03-17T10:59:57.522Z,1.544
2023-03-17T11:01:59.317Z,0
2023-03-17T11:04:00.898Z,4.071
2023-03-17T11:06:02.072Z,0.561
2023-03-17T11:08:03.065Z,2.808
2023-03-17T11:10:04.480Z,4.352
2023-03-17T11:12:05.706Z,5.896
2023-03-17T11:14:06.694Z,5.896
2023-03-17T11:16:07.805Z,5.194
2023-03-17T11:18:09.006Z,4.492
2023-03-17T11:20:10.061Z,2.106
2023-03-17T11:22:11.165Z,1.123
2023-03-17T11:24:12.412Z,1.544
2023-03-17T11:26:14.552Z,7.3
2023-03-17T11:28:16.034Z,3.65
2023-03-17T11:30:17.652Z,5.616
2023-03-17T11:32:19.284Z,2.667
2023-03-17T11:34:20.302Z,5.054
2023-03-17T11:36:22.011Z,1.404
2023-03-17T11:38:23.358Z,2.246
2023-03-17T11:40:24.285Z,3.229
2023-03-17T11:42:25.844Z,4.352
2023-03-17T11:44:27.253Z,3.931
2023-03-17T11:46:29.040Z,4.071
2023-03-17T11:48:29.954Z,2.386
2023-03-17T11:50:31.671Z,0
2023-03-17T11:52:33.129Z,4.492
2023-03-17T11:54:33.992Z,2.808
2023-03-17T11:56:35.056Z,0.842
2023-03-17T11:58:36.436Z,4.492
2023-03-17T12:00:37.479Z,4.773
2023-03-17T12:02:38.623Z,2.667
2023-03-17T12:04:40.104Z,5.896
2023-03-17T12:06:41.722Z,3.229
2023-03-17T12:08:43.026Z,5.054
2023-03-17T12:10:43.870Z,0.842
2023-03-17T12:12:45.618Z,2.246
2023-03-17T12:14:47.045Z,6.739
2023-03-17T12:16:48.596Z,3.088
2023-03-17T12:18:49.594Z,0.14
2023-03-17T12:20:50.647Z,4.773
2023-03-17T12:22:52.469Z,5.054
2023-03-17T12:26:54.470Z,3.51
2023-03-17T12:29:05.339Z,3.931
2023-03-17T12:30:56.281Z,1.123
2023-03-17T12:32:57.575Z,4.071
2023-03-17T12:37:00.614Z,0
2023-03-17T12:39:02.223Z,0.14
2023-03-17T12:41:03.253Z,1.263
2023-03-17T12:43:04.330Z,0
2023-03-17T12:45:05.474Z,3.229
2023-03-17T12:47:06.639Z,2.667
2023-03-17T12:49:07.569Z,5.475
2023-03-17T12:51:08.773Z,2.246
2023-03-17T12:53:09.831Z,2.246
2023-03-17T12:55:11.236Z,1.263
2023-03-17T12:57:13.024Z,0.14
2023-03-17T12:59:14.412Z,1.544
2023-03-17T13:01:15.286Z,3.369
2023-03-17T13:03:16.512Z,3.51
2023-03-17T13:05:18.044Z,1.825
2023-03-17T13:07:19.115Z,2.246
2023-03-17T13:09:20.886Z,2.527
2023-03-17T13:11:22.012Z,0
2023-03-17T13:13:23.592Z,3.088
2023-03-17T13:15:25.292Z,2.106
2023-03-17T13:17:26.452Z,1.825
2023-03-17T13:19:27.849Z,1.404
2023-03-17T13:21:33.209Z,0.842
2023-03-17T13:23:30.838Z,0.421
2023-03-17T13:25:32.966Z,0
2023-03-17T13:27:34.085Z,0
2023-03-17T13:29:35.201Z,0.842
2023-03-17T13:31:36.732Z,1.684
2023-03-17T13:33:37.651Z,0
2023-03-17T13:35:39.052Z,0.561
2023-03-17T13:37:40.375Z,1.544
2023-03-17T13:39:41.777Z,4.212
2023-03-17T13:41:42.653Z,2.246
2023-03-17T13:43:43.626Z,3.65
2023-03-17T13:45:44.702Z,1.123
2023-03-17T13:47:45.846Z,1.544
2023-03-17T13:49:47.613Z,3.65
2023-03-17T13:51:58.954Z,2.808
2023-03-17T13:53:49.477Z,0.982
2023-03-17T13:55:50.348Z,0.842
2023-03-17T13:57:51.652Z,1.544
2023-03-17T13:59:52.803Z,0.28
2023-03-17T14:01:53.737Z,2.527
2023-03-17T14:03:55.155Z,2.106
2023-03-17T14:07:58.403Z,6.879
2023-03-17T14:09:59.832Z,4.633
2023-03-17T14:12:01.392Z,4.352
2023-03-17T14:14:02.762Z,4.492
2023-03-17T14:18:05.401Z,2.667
2023-03-17T14:20:06.175Z,2.667
2023-03-17T14:22:07.316Z,4.914
2023-03-17T14:24:08.167Z,4.352
2023-03-17T14:26:09.320Z,3.931
2023-03-17T14:28:11.414Z,2.948
2023-03-17T14:30:12.458Z,4.492
2023-03-17T14:32:13.331Z,3.229
2023-03-17T14:34:14.530Z,4.352
2023-03-17T14:36:15.980Z,1.965
2023-03-17T14:38:17.092Z,5.896
2023-03-17T14:40:18.458Z,5.194
2023-03-17T14:42:19.805Z,5.194
2023-03-17T14:44:21.223Z,2.386
2023-03-17T14:46:22.377Z,5.475
2023-03-17T14:48:23.162Z,2.527
2023-03-17T14:50:24.041Z,4.914
2023-03-17T14:52:25.717Z,6.177
2023-03-17T14:54:26.998Z,5.054
2023-03-17T14:56:28.515Z,8.704
2023-03-17T14:57:12.265Z,6.458
2023-03-17T14:59:13.396Z,6.318
2023-03-17T15:01:14.339Z,4.352
2023-03-17T15:03:15.248Z,6.037
2023-03-17T15:05:16.460Z,5.335
2023-03-17T15:07:17.413Z,4.212
2023-03-17T15:11:20.253Z,2.808
2023-03-17T15:13:21.967Z,4.633
2023-03-17T15:15:23.650Z,3.65
2023-03-17T15:17:25.435Z,4.773
2023-03-17T15:19:28.732Z,5.054
2023-03-17T15:21:28.745Z,5.194
2023-03-17T15:23:30.538Z,3.79
2023-03-17T15:25:32.339Z,3.79
2023-03-17T15:27:41.473Z,2.948
2023-03-17T15:29:35.213Z,3.79
2023-03-17T15:31:37.018Z,3.65
2023-03-17T15:33:38.356Z,3.229
2023-03-17T15:35:40.180Z,2.808
2023-03-17T15:37:41.917Z,3.229
2023-03-17T15:39:43.550Z,3.65
2023-03-17T15:43:46.680Z,3.088
2023-03-17T15:45:48.465Z,0.702
2023-03-17T15:47:49.837Z,3.088
2023-03-17T15:49:51.334Z,2.246
2023-03-17T15:51:52.770Z,2.386
2023-03-17T15:53:54.179Z,3.229
2023-03-17T15:55:55.244Z,2.106
2023-03-17T15:57:56.289Z,2.527
2023-03-17T15:59:57.374Z,3.65
2023-03-17T16:01:58.751Z,3.088
2023-03-17T16:04:00.066Z,2.527
2023-03-17T16:06:01.176Z,1.684
2023-03-17T16:08:02.416Z,3.369
2023-03-17T16:10:03.997Z,3.931
2023-03-17T16:12:05.747Z,3.229
2023-03-17T16:14:07.579Z,3.51
2023-03-17T16:16:09.000Z,4.773
2023-03-17T16:18:10.268Z,4.071
2023-03-17T16:20:11.963Z,4.633
2023-03-17T16:22:13.604Z,5.335
2023-03-17T16:26:16.980Z,7.3
2023-03-17T16:28:17.444Z,5.054
2023-03-17T16:30:19.286Z,5.475
2023-03-17T16:32:20.833Z,4.071
2023-03-17T16:36:23.550Z,4.212
2023-03-17T16:38:24.931Z,4.914
2023-03-17T16:40:25.764Z,5.194
2023-03-17T16:42:27.221Z,3.79
2023-03-17T16:44:28.166Z,3.65
2023-03-17T16:46:29.165Z,2.106
2023-03-17T16:48:30.277Z,4.633
2023-03-17T16:50:31.407Z,1.404
2023-03-17T16:52:32.677Z,2.948
2023-03-17T16:54:34.480Z,3.65
2023-03-17T16:56:35.833Z,3.51
2023-03-17T16:58:36.898Z,3.51
2023-03-17T17:00:38.473Z,5.616
2023-03-17T17:02:40.206Z,3.229
2023-03-17T17:04:41.596Z,3.931
2023-03-17T17:06:43.073Z,2.386
2023-03-17T17:08:44.774Z,3.229
2023-03-17T17:10:46.211Z,2.386
2023-03-17T17:12:47.251Z,6.318
2023-03-17T17:14:48.669Z,4.212
2023-03-17T17:16:50.264Z,1.825
2023-03-17T17:18:51.751Z,2.948
2023-03-17T17:20:53.002Z,3.79
2023-03-17T17:22:54.379Z,5.475
2023-03-17T17:24:55.615Z,3.79
2023-03-17T17:26:56.857Z,6.037
2023-03-17T17:28:58.474Z,4.071
2023-03-17T17:30:59.171Z,3.088
2023-03-17T17:33:00.541Z,5.054
2023-03-17T17:35:01.564Z,3.51
2023-03-17T17:37:02.656Z,4.633
2023-03-17T17:39:03.925Z,3.51
2023-03-17T17:41:05.052Z,5.194
2023-03-17T17:43:06.093Z,4.212
2023-03-17T17:45:07.274Z,4.773
2023-03-17T17:47:08.352Z,4.492
2023-03-17T17:49:09.320Z,4.352
2023-03-17T17:51:10.920Z,4.492
2023-03-17T17:53:11.863Z,0.982
2023-03-17T17:55:13.291Z,3.088
2023-03-17T17:57:14.700Z,2.527
2023-03-17T17:59:16.427Z,3.79
2023-03-17T18:01:17.869Z,2.808
2023-03-17T18:03:19.542Z,3.088
2023-03-17T18:07:21.750Z,0.421
2023-03-17T18:09:22.755Z,4.071
2023-03-17T18:11:24.041Z,6.458
2023-03-17T18:13:25.212Z,4.071
2023-03-17T18:17:30.113Z,2.808
2023-03-17T18:19:29.763Z,5.335
2023-03-17T18:21:30.931Z,3.369
2023-03-17T18:23:32.476Z,4.352
2023-03-17T18:25:34.143Z,4.071
2023-03-17T18:27:35.625Z,4.352
2023-03-17T18:29:36.561Z,0.842
2023-03-17T18:31:38.472Z,0
2023-03-17T18:33:40.022Z,0
2023-03-17T18:35:41.558Z,0.421
2023-03-17T18:39:43.670Z,0
2023-03-17T18:41:45.397Z,0
2023-03-17T18:43:46.953Z,0
2023-03-17T18:45:48.197Z,4.071
2023-03-17T18:47:49.096Z,0.842
2023-03-17T18:49:50.463Z,0.842
2023-03-17T18:51:52.361Z,1.825
2023-03-17T18:53:53.629Z,2.106
2023-03-17T18:55:55.313Z,0
2023-03-17T18:57:56.518Z,0
2023-03-17T18:59:58.154Z,0
2023-03-17T19:01:59.296Z,4.773
2023-03-17T19:04:01.061Z,1.684
2023-03-17T19:06:02.153Z,3.65
2023-03-17T19:08:03.357Z,0.14
2023-03-17T19:10:04.348Z,3.369
2023-03-17T19:12:05.567Z,0
2023-03-17T19:14:07.275Z,1.404
2023-03-17T19:16:09.002Z,2.808
2023-03-17T19:18:10.352Z,0.28
2023-03-17T19:20:11.456Z,1.263
2023-03-17T19:22:13.269Z,2.246
2023-03-17T19:24:14.794Z,1.404
2023-03-17T19:26:16.248Z,1.263
2023-03-17T19:28:18.031Z,0.14
2023-03-17T19:30:19.233Z,0
2023-03-17T19:32:20.761Z,0
2023-03-17T19:34:22.132Z,0
2023-03-17T19:38:24.839Z,0
2023-03-17T19:40:26.691Z,0
2023-03-17T19:42:27.950Z,0
2023-03-17T19:44:29.082Z,0
2023-03-17T19:46:31.011Z,0
2023-03-17T19:48:32.334Z,0
2023-03-17T19:50:33.952Z,0
2023-03-17T19:52:35.590Z,0
2023-03-17T19:54:37.181Z,0
2023-03-17T19:56:38.829Z,2.246
2023-03-17T19:58:40.237Z,0
2023-03-17T20:00:41.460Z,0
2023-03-17T20:02:42.411Z,3.65
2023-03-17T20:04:44.248Z,1.123
2023-03-17T20:06:45.217Z,0.28
2023-03-17T20:08:46.375Z,1.404
2023-03-17T20:10:48.152Z,0.561
2023-03-17T20:14:50.981Z,2.386
2023-03-17T20:16:52.229Z,0.14
2023-03-17T20:20:55.750Z,2.106
2023-03-17T20:22:57.016Z,0
2023-03-17T20:24:58.908Z,0.28
2023-03-17T20:26:59.839Z,1.544
2023-03-17T20:31:02.124Z,0.982
2023-03-17T20:33:04.029Z,0.28
2023-03-17T20:35:07.463Z,2.246
2023-03-17T20:37:06.441Z,0
2023-03-17T20:39:08.198Z,0
2023-03-17T20:43:11.058Z,0
2023-03-17T20:45:12.414Z,0
2023-03-17T20:47:14.191Z,0
2023-03-17T20:49:15.797Z,0
2023-03-17T20:51:16.849Z,0
2023-03-17T20:53:18.709Z,0
2023-03-17T20:55:20.096Z,0
2023-03-17T20:57:21.899Z,0
2023-03-17T20:59:23.061Z,0
2023-03-17T21:03:25.698Z,2.527
2023-03-17T21:05:27.538Z,0.28
2023-03-17T21:07:29.177Z,3.931
2023-03-17T21:09:31.103Z,1.404
2023-03-17T21:13:33.280Z,0
2023-03-17T21:15:34.641Z,0.561
2023-03-17T21:17:35.582Z,0
2023-03-17T21:19:37.203Z,0
2023-03-17T21:21:38.989Z,0
2023-03-17T21:23:40.883Z,0
2023-03-17T21:25:42.005Z,0
2023-03-17T21:27:43.379Z,0
2023-03-17T21:29:45.241Z,0
2023-03-17T21:31:46.993Z,0
2023-03-17T21:33:48.450Z,0
2023-03-17T21:35:49.952Z,0
2023-03-17T21:37:51.770Z,0.14
2023-03-17T21:39:53.387Z,0
2023-03-17T21:41:55.149Z,0
2023-03-17T21:42:38.964Z,0
2023-03-17T21:44:40.097Z,0.14
2023-03-17T21:46:41.617Z,0.842
2023-03-17T21:48:43.313Z,0
2023-03-17T21:50:44.946Z,0.14
2023-03-17T21:52:46.156Z,0.561
2023-03-17T21:54:47.294Z,0
2023-03-17T21:56:48.886Z,0
2023-03-17T21:58:50.278Z,0
2023-03-17T22:00:52.223Z,0
2023-03-17T22:02:53.738Z,0
2023-03-17T22:04:54.837Z,0
2023-03-17T22:06:56.140Z,0.14
2023-03-17T22:08:57.868Z,0
2023-03-17T22:10:59.269Z,0
2023-03-17T22:13:01.119Z,0
2023-03-17T22:15:02.702Z,0.14
2023-03-17T22:17:03.913Z,0.14
2023-03-17T22:19:05.612Z,4.071
2023-03-17T22:21:07.251Z,1.123
2023-03-17T22:23:08.591Z,1.684
2023-03-17T22:25:09.752Z,0
2023-03-17T22:27:10.957Z,0.28
2023-03-17T22:29:12.866Z,0
2023-03-17T22:31:14.638Z,0
2023-03-17T22:33:16.075Z,0
2023-03-17T22:35:17.089Z,0
2023-03-17T22:37:18.733Z,0
2023-03-17T22:39:20.542Z,0
2023-03-17T22:41:22.505Z,0
2023-03-17T22:43:23.584Z,0
2023-03-17T22:45:24.663Z,0
2023-03-17T22:49:28.083Z,0
2023-03-17T22:51:29.302Z,0
2023-03-17T22:53:30.394Z,0
2023-03-17T22:55:31.603Z,0
2023-03-17T22:57:33.315Z,0
2023-03-17T22:59:34.609Z,0
2023-03-17T23:01:36.579Z,0
2023-03-17T23:03:37.975Z,0
2023-03-17T23:05:39.054Z,0
2023-03-17T23:07:47.983Z,0
2023-03-17T23:09:42.152Z,0
2023-03-17T23:11:43.515Z,0
2023-03-17T23:13:44.826Z,0
2023-03-17T23:15:46.685Z,0
2023-03-17T23:17:48.132Z,0
2023-03-17T23:21:51.238Z,0
2023-03-17T23:23:53.093Z,0
2023-03-17T23:25:54.453Z,0
2023-03-17T23:27:55.740Z,0
2023-03-17T23:31:58.967Z,0
2023-03-17T23:34:00.161Z,0
2023-03-17T23:36:02.162Z,0
2023-03-17T23:38:03.132Z,0
2023-03-17T23:40:05.038Z,0
2023-03-17T23:44:08.035Z,0
2023-03-17T23:46:09.685Z,0
2023-03-17T23:48:10.612Z,0
2023-03-17T23:50:12.478Z,0
2023-03-17T23:52:13.840Z,0
2023-03-17T23:54:15.369Z,0
2023-03-17T23:56:17.020Z,0
2023-03-17T23:58:18.520Z,0
